Ypenburg, Netherlands
Current Conditions -  °F | °C
As of 2:25 AM on Sunday 23 Nov 2014 (Local Time) from EHRD Reporting Station
Clear Clear  
Wind Chill: 50°   Ceiling: Unl
Heat Index: 50°   Visibility: 6mi
Dew Point: 48°   Wind: 6mph
Humidity: 94%   Direction: 170°S
Pressure: 30.03"   Gusts: NA
Location:  52.04°N, 4.37°E
Report Text: EHRD 230125Z AUTO 17005KT 9999 NSC 10/09 Q1017 NOSIG
Loading
Personal Weather Stations






























Interactive Weather Map New forecast layout! Learn more

10-Day Weather Forecast

Advertisements
Track Severe Weather on mobile